Aeroporto :
LOGIN :

Iscrizione | Disclaimer

   EN    FR    IT 

 










Sommario :    VFR   VFR Marginale   IFR   IFR Intensivo   IFR Molto Intensivo
Visibilità : 
Base nubi : 
>= 8 km
>= 3000ft
5 / 8 km
1000 / 3000 ft
1500m / 5 km
500 / 1000 ft
800 / 1500m
200 / 500 ft
< 800m
< 200 ft
Simboli :   Temporali  Nebbia  Neve Forte  Precipitazioni Forti  Vento > 20 kt
SIGMETs :   Varie  Temporali  Ghiacco  Turbolenza  Onda orograficha  Ceneri Vulcaniche






- Altitudine del aeroporto : 622 ft
- Codice IATA : BRS


EGGD - Bristol Int.

ULTIMO METAR :
  • 021950Z AUTO 24008KT 210V270 9999 BKN003 BKN028 OVC043 07/07 Q1016

METARs OBSOLETI :
  • 021920Z AUTO 25010KT 9000 BKN003 07/06 Q1016
  • 021850Z AUTO 26014KT 9999 SCT004 BKN031 BKN045 07/06 Q1016
  • 021820Z AUTO 26013KT 9999 SCT033 BKN041 08/06 Q1016
  • 021750Z AUTO 26014KT 9999 BKN031 OVC045 08/07 Q1015
  • 021720Z AUTO 26014KT 9999 SCT006 BKN028 08/07 Q1015

TAF AMD TAF EGGD
Valido dal 02 a 19 ore il 03 a 18 ore UTC


021934Z 0219/0318 28006KT 9999 SCT003 BKN030
TEMPO 0219/0302 9000 BKN003
ATIS : +44 1275 473 666



MetMap, La meteo Aeronautica in un colpo d'occhio ! - Copyright ORBIFLY Dicembre 2007 - Disclaimer

ORBIFLY MET'MAP TEAM :

Programmazione e sviluppo : Alexandra Zaïnal
Concezione : Baudouin d'Aumeries
Aiuto per la programmazione : Marc-Olivier Méhu
Supporto tecnico e logistico : Manuel Goepfert
Aiuto per la traduzione : Arnaldo La Scala

Contatto : metmap@orbifly.com




FONTI E CREDITI :

   NOAA